Time;durP1;ratioP1;P1;durP2;ratioP2;P2;SDS_P1;SDS_P2;PMS_P1;PMS_P2;Temp;Humidity;BMP_temperature;BMP_pressure;BME280_temperature;BME280_humidity;BME280_pressure;Samples;Min_cycle;Max_cycle;Signal;HPM_P1;HPM_P2
2024/04/21 00:00:39;;;;;;;5.07;1.70;;;7.40;99.90;;;;;;5313436;26;20006;-85
2024/04/21 00:03:05;;;;;;;3.20;1.05;;;7.20;99.90;;;;;;5293930;27;20013;-85
2024/04/21 00:05:31;;;;;;;5.13;1.42;;;7.20;99.90;;;;;;5272293;27;20002;-85
2024/04/21 00:07:57;;;;;;;4.35;1.20;;;7.20;99.90;;;;;;5341299;26;20033;-85
2024/04/21 00:10:22;;;;;;;6.65;1.67;;;7.10;99.90;;;;;;5293864;26;20071;-85
2024/04/21 00:12:48;;;;;;;5.35;1.30;;;7.10;99.90;;;;;;5328175;26;20333;-86
2024/04/21 00:15:14;;;;;;;5.60;1.88;;;7.00;99.90;;;;;;5335741;26;20005;-85
2024/04/21 00:17:40;;;;;;;5.90;1.42;;;7.00;99.90;;;;;;5331120;26;20406;-85
2024/04/21 00:20:06;;;;;;;4.57;1.35;;;6.90;99.90;;;;;;5342061;26;20002;-86
2024/04/21 00:22:31;;;;;;;4.57;1.23;;;6.90;99.90;;;;;;5312825;27;20001;-86
2024/04/21 00:24:57;;;;;;;3.88;1.02;;;6.80;99.90;;;;;;5309663;26;19993;-86
2024/04/21 00:27:23;;;;;;;6.65;1.25;;;6.70;99.90;;;;;;5338817;26;20013;-85
2024/04/21 00:29:48;;;;;;;2.95;0.98;;;6.70;99.90;;;;;;5309764;26;20075;-86
2024/04/21 00:32:14;;;;;;;5.07;0.93;;;6.70;99.90;;;;;;5318835;26;20402;-86
2024/04/21 00:34:40;;;;;;;4.43;1.00;;;6.60;99.90;;;;;;5352978;26;20011;-87
2024/04/21 00:37:05;;;;;;;4.28;1.02;;;6.60;99.90;;;;;;5324604;26;20001;-85
2024/04/21 00:39:31;;;;;;;5.18;1.13;;;6.50;99.90;;;;;;5324717;26;20000;-86
2024/04/21 00:41:56;;;;;;;5.85;0.90;;;6.40;99.90;;;;;;5325256;26;20375;-85
2024/04/21 00:44:24;;;;;;;4.53;0.85;;;6.40;99.90;;;;;;5397576;26;20007;-86
2024/04/21 00:46:51;;;;;;;1.58;0.80;;;6.30;99.90;;;;;;5367437;26;20035;-84
2024/04/21 00:49:16;;;;;;;2.83;0.95;;;6.30;99.90;;;;;;5329238;26;20050;-85
2024/04/21 00:51:43;;;;;;;3.65;0.88;;;6.30;99.90;;;;;;5372702;26;20012;-85
2024/04/21 00:54:10;;;;;;;3.58;0.90;;;6.20;99.90;;;;;;5338107;26;20000;-85
2024/04/21 00:56:36;;;;;;;3.53;0.70;;;6.20;99.90;;;;;;5290154;26;20004;-85
2024/04/21 00:59:02;;;;;;;3.72;0.95;;;6.20;99.90;;;;;;5276369;26;20019;-85
2024/04/21 01:01:29;;;;;;;5.70;1.10;;;6.30;99.90;;;;;;5332845;26;19997;-86
2024/04/21 01:03:55;;;;;;;3.95;0.93;;;6.30;99.90;;;;;;5320716;26;20001;-85
2024/04/21 01:06:22;;;;;;;6.75;1.20;;;6.20;99.90;;;;;;5342758;26;20000;-85
2024/04/21 01:08:47;;;;;;;6.13;1.00;;;6.30;99.90;;;;;;5346620;26;20004;-85
2024/04/21 01:11:17;;;;;;;2.53;0.75;;;6.20;99.90;;;;;;5322388;26;20348;-86
2024/04/21 01:13:43;;;;;;;2.83;0.82;;;6.20;99.90;;;;;;5383712;26;20003;-85
2024/04/21 01:16:09;;;;;;;4.30;1.20;;;6.20;99.90;;;;;;5325475;26;20016;-85
2024/04/21 01:18:35;;;;;;;5.15;0.88;;;6.20;99.90;;;;;;5380460;26;19992;-85
2024/04/21 01:21:00;;;;;;;3.58;0.95;;;6.10;99.90;;;;;;5289237;26;20403;-85
2024/04/21 01:23:26;;;;;;;4.47;1.15;;;6.00;99.90;;;;;;5382386;26;19992;-86
2024/04/21 01:25:51;;;;;;;6.05;0.80;;;6.00;99.90;;;;;;5323724;26;20000;-85
2024/04/21 01:28:20;;;;;;;8.07;1.13;;;5.90;99.90;;;;;;5382285;26;20065;-84
2024/04/21 01:30:45;;;;;;;3.75;1.10;;;5.90;99.90;;;;;;5317526;26;19997;-85
2024/04/21 01:33:11;;;;;;;2.28;0.80;;;5.90;99.90;;;;;;5330013;26;20020;-85
2024/04/21 01:35:37;;;;;;;4.20;1.45;;;5.90;99.90;;;;;;5337957;26;20067;-85
2024/04/21 01:38:03;;;;;;;3.42;1.20;;;5.90;99.90;;;;;;5363230;26;20043;-85
2024/04/21 01:40:28;;;;;;;5.22;1.02;;;5.80;99.90;;;;;;5349796;26;19996;-85
2024/04/21 01:42:54;;;;;;;2.03;0.80;;;5.90;99.90;;;;;;5318460;26;20041;-85
2024/04/21 01:45:20;;;;;;;3.13;0.90;;;5.90;99.90;;;;;;5280463;26;20532;-85
2024/04/21 01:47:45;;;;;;;4.30;1.52;;;5.90;99.90;;;;;;5366858;26;20416;-85
2024/04/21 01:50:11;;;;;;;3.40;0.98;;;5.90;99.90;;;;;;5325237;26;19997;-84
2024/04/21 01:52:38;;;;;;;2.58;0.80;;;5.90;99.90;;;;;;5345456;26;20525;-83
2024/04/21 01:55:04;;;;;;;2.55;0.75;;;5.90;99.90;;;;;;5337303;26;20007;-84
2024/04/21 01:57:32;;;;;;;3.17;0.82;;;5.90;99.90;;;;;;5352390;26;19992;-85
2024/04/21 01:59:57;;;;;;;2.40;0.77;;;5.80;99.90;;;;;;5308545;26;20000;-84
2024/04/21 02:02:23;;;;;;;2.10;1.08;;;5.80;99.90;;;;;;5322925;26;20008;-84
2024/04/21 02:04:49;;;;;;;2.83;1.00;;;5.80;99.90;;;;;;5352862;26;20069;-84
2024/04/21 02:07:15;;;;;;;1.50;0.73;;;5.80;99.90;;;;;;5340343;26;20009;-84
2024/04/21 02:09:43;;;;;;;1.55;0.68;;;5.90;99.90;;;;;;5342769;26;19996;-84
2024/04/21 02:12:09;;;;;;;4.70;1.00;;;5.80;99.90;;;;;;5336706;26;20428;-82
2024/04/21 02:14:35;;;;;;;5.05;1.05;;;5.80;99.90;;;;;;5364145;26;20073;-84
2024/04/21 02:17:00;;;;;;;2.92;1.02;;;5.80;99.90;;;;;;5296264;26;20065;-84
2024/04/21 02:19:31;;;;;;;3.15;0.80;;;5.80;99.90;;;;;;5355507;26;20009;-84
2024/04/21 02:21:57;;;;;;;3.42;1.20;;;5.80;99.90;;;;;;5302806;26;20000;-84
2024/04/21 02:24:25;;;;;;;3.72;0.90;;;5.80;99.90;;;;;;5350859;26;20370;-84
2024/04/21 02:26:51;;;;;;;5.00;0.93;;;5.80;99.90;;;;;;5381248;26;20030;-84
2024/04/21 02:29:19;;;;;;;2.80;1.10;;;5.80;99.90;;;;;;5351482;26;19996;-84
2024/04/21 02:31:45;;;;;;;3.03;1.00;;;5.80;99.90;;;;;;5351049;26;20435;-84
2024/04/21 02:34:11;;;;;;;3.78;1.23;;;5.80;99.90;;;;;;5333303;26;20044;-84
2024/04/21 02:36:36;;;;;;;6.28;1.40;;;5.80;99.90;;;;;;5339448;26;20005;-84
2024/04/21 02:39:03;;;;;;;3.67;1.08;;;5.80;99.90;;;;;;5319121;26;20001;-84
2024/04/21 02:41:28;;;;;;;6.10;1.20;;;5.80;99.90;;;;;;5295234;26;19998;-84
2024/04/21 02:43:54;;;;;;;2.92;0.95;;;5.80;99.90;;;;;;5301797;27;20409;-84
2024/04/21 02:46:21;;;;;;;4.63;1.20;;;5.80;99.90;;;;;;5338571;26;20290;-84
2024/04/21 02:48:46;;;;;;;4.22;1.15;;;5.90;99.90;;;;;;5318057;26;20016;-84
2024/04/21 02:51:12;;;;;;;4.65;1.20;;;5.90;99.90;;;;;;5316975;26;19993;-84
2024/04/21 02:53:38;;;;;;;4.15;1.40;;;5.90;99.90;;;;;;5335558;26;19998;-85
2024/04/21 02:56:03;;;;;;;2.58;1.20;;;5.90;99.90;;;;;;5336266;26;20031;-84
2024/04/21 02:58:29;;;;;;;5.47;1.15;;;6.00;99.90;;;;;;5316449;26;20016;-84
2024/04/21 03:00:55;;;;;;;3.42;1.10;;;6.00;99.90;;;;;;5330456;26;20002;-83
2024/04/21 03:03:20;;;;;;;4.78;1.08;;;6.00;99.90;;;;;;5329625;26;20012;-85
2024/04/21 03:05:57;;;;;;;4.15;1.05;;;6.00;99.90;;;;;;5313712;26;20012;-83
2024/04/21 03:08:24;;;;;;;4.47;1.25;;;6.00;99.90;;;;;;5316306;26;20014;-83
2024/04/21 03:10:50;;;;;;;4.68;1.40;;;6.10;99.90;;;;;;5291894;27;20013;-85
2024/04/21 03:13:16;;;;;;;3.35;0.95;;;6.10;99.90;;;;;;5344785;26;20001;-85
2024/04/21 03:15:41;;;;;;;9.05;1.50;;;6.10;99.90;;;;;;5339128;26;20408;-84
2024/04/21 03:18:07;;;;;;;3.22;1.20;;;6.20;99.90;;;;;;5316469;26;20079;-85
2024/04/21 03:20:33;;;;;;;5.50;1.10;;;6.10;99.90;;;;;;5311248;26;20008;-84
2024/04/21 03:22:58;;;;;;;6.28;1.48;;;6.10;99.90;;;;;;5327330;26;20001;-84
2024/04/21 03:25:24;;;;;;;3.08;1.25;;;6.10;99.90;;;;;;5309985;26;20002;-84
2024/04/21 03:27:50;;;;;;;5.93;1.30;;;6.10;99.90;;;;;;5311996;26;20001;-84
2024/04/21 03:30:16;;;;;;;4.28;1.10;;;6.10;99.90;;;;;;5331262;26;19997;-83
2024/04/21 03:32:41;;;;;;;6.65;1.52;;;6.10;99.90;;;;;;5320465;26;19989;-84
2024/04/21 03:35:08;;;;;;;6.43;2.00;;;6.10;99.90;;;;;;5370123;26;19994;-84
2024/04/21 03:37:34;;;;;;;3.67;1.52;;;6.10;99.90;;;;;;5372046;26;20083;-84
2024/04/21 03:40:00;;;;;;;6.97;1.92;;;6.00;99.90;;;;;;5287992;26;19993;-84
2024/04/21 03:42:26;;;;;;;4.30;1.50;;;6.00;99.90;;;;;;5318585;26;20009;-84
2024/04/21 03:44:52;;;;;;;5.00;1.52;;;6.00;99.90;;;;;;5347988;26;20074;-84
2024/04/21 03:47:20;;;;;;;6.03;1.20;;;6.00;99.90;;;;;;5342955;26;20008;-85
2024/04/21 03:49:46;;;;;;;2.83;0.95;;;6.00;99.90;;;;;;5320296;26;20004;-83
2024/04/21 03:52:11;;;;;;;3.97;1.30;;;6.00;99.90;;;;;;5384588;26;20000;-84
2024/04/21 03:54:37;;;;;;;4.57;1.30;;;6.00;99.90;;;;;;5319870;26;19993;-84
2024/04/21 03:57:05;;;;;;;3.47;1.50;;;5.90;99.90;;;;;;5371014;26;20011;-85
2024/04/21 03:59:31;;;;;;;2.50;0.90;;;5.90;99.90;;;;;;5296775;26;20011;-84
2024/04/21 04:01:57;;;;;;;5.50;1.17;;;5.90;99.90;;;;;;5338907;26;20055;-85
2024/04/21 04:04:22;;;;;;;3.85;1.05;;;5.90;99.90;;;;;;5346838;26;20008;-85
2024/04/21 04:06:48;;;;;;;4.15;1.00;;;5.90;99.90;;;;;;5315588;26;20478;-85
2024/04/21 04:09:13;;;;;;;3.75;0.88;;;5.90;99.90;;;;;;5386894;26;20000;-84
2024/04/21 04:11:39;;;;;;;4.60;1.02;;;5.90;99.90;;;;;;5354247;26;19997;-84
2024/04/21 04:14:05;;;;;;;4.97;1.05;;;5.90;99.90;;;;;;5355199;26;20061;-85
2024/04/21 04:16:30;;;;;;;5.05;1.15;;;5.90;99.90;;;;;;5301595;26;20001;-84
2024/04/21 04:18:56;;;;;;;3.17;1.10;;;5.90;99.90;;;;;;5317768;26;20048;-84
2024/04/21 04:21:22;;;;;;;3.28;1.10;;;5.90;99.90;;;;;;5350021;26;19993;-84
2024/04/21 04:23:47;;;;;;;4.70;0.90;;;6.00;99.90;;;;;;5283409;26;20382;-84
2024/04/21 04:26:13;;;;;;;3.13;1.02;;;6.00;99.90;;;;;;5347925;26;20029;-84
2024/04/21 04:28:39;;;;;;;6.25;1.70;;;6.00;99.90;;;;;;5338838;26;20020;-85
2024/04/21 04:31:05;;;;;;;4.38;1.00;;;5.90;99.90;;;;;;5334981;26;20025;-84
2024/04/21 04:33:30;;;;;;;2.35;0.85;;;6.00;99.90;;;;;;5291144;26;20009;-85
2024/04/21 04:35:56;;;;;;;2.38;0.80;;;5.90;99.90;;;;;;5284323;26;20001;-84
2024/04/21 04:38:22;;;;;;;3.58;1.10;;;5.90;99.90;;;;;;5309632;26;20448;-85
2024/04/21 04:40:47;;;;;;;4.25;1.00;;;5.90;99.90;;;;;;5288170;26;20407;-84
2024/04/21 04:43:13;;;;;;;2.28;0.90;;;6.00;99.90;;;;;;5384690;26;20007;-84
2024/04/21 04:45:39;;;;;;;3.05;0.90;;;6.00;99.90;;;;;;5321944;26;20019;-85
2024/04/21 04:48:05;;;;;;;3.83;0.95;;;6.10;99.90;;;;;;5353820;26;19996;-84
2024/04/21 04:50:31;;;;;;;2.17;0.70;;;6.00;99.90;;;;;;5368546;26;20000;-85
2024/04/21 04:52:56;;;;;;;1.75;0.85;;;6.00;99.90;;;;;;5315892;26;20007;-85
2024/04/21 04:55:23;;;;;;;0.98;0.47;;;6.00;99.90;;;;;;5376359;26;20027;-83
2024/04/21 04:57:49;;;;;;;2.92;0.75;;;6.00;99.90;;;;;;5347881;26;20007;-85
2024/04/21 05:00:15;;;;;;;2.30;0.90;;;6.00;99.90;;;;;;5387581;26;20012;-84
2024/04/21 05:02:40;;;;;;;4.82;0.88;;;6.00;99.90;;;;;;5269350;26;20071;-84
2024/04/21 05:05:06;;;;;;;1.77;0.60;;;6.00;99.90;;;;;;5332225;26;20011;-84
2024/04/21 05:07:32;;;;;;;3.03;1.05;;;6.00;99.90;;;;;;5352934;26;19996;-84
2024/04/21 05:09:58;;;;;;;2.42;0.85;;;6.00;99.90;;;;;;5337811;26;20000;-84
2024/04/21 05:12:23;;;;;;;2.58;0.70;;;6.00;99.90;;;;;;5349592;26;20455;-83
2024/04/21 05:14:49;;;;;;;1.73;0.50;;;6.00;99.90;;;;;;5317501;26;20011;-83
2024/04/21 05:17:15;;;;;;;2.33;0.43;;;6.00;99.90;;;;;;5338794;26;20479;-84
2024/04/21 05:19:40;;;;;;;1.80;0.57;;;6.00;99.90;;;;;;5320524;26;20003;-84
2024/04/21 05:22:06;;;;;;;1.65;0.40;;;6.00;99.90;;;;;;5335749;26;20016;-84
2024/04/21 05:24:31;;;;;;;1.42;0.45;;;6.00;99.90;;;;;;5314393;26;20379;-84
2024/04/21 05:26:57;;;;;;;3.03;0.73;;;6.00;99.90;;;;;;5339763;26;20078;-84
2024/04/21 05:29:23;;;;;;;2.55;0.75;;;6.00;99.90;;;;;;5289201;26;20003;-84
2024/04/21 05:31:48;;;;;;;2.08;0.75;;;6.00;99.90;;;;;;5370057;26;20070;-84
2024/04/21 05:34:16;;;;;;;2.45;0.88;;;6.00;99.90;;;;;;5302233;26;20459;-85
2024/04/21 05:36:42;;;;;;;1.80;0.60;;;6.00;99.90;;;;;;5327610;26;20005;-85
2024/04/21 05:39:08;;;;;;;2.72;1.42;;;6.00;99.90;;;;;;5378474;26;20015;-87
2024/04/21 05:41:33;;;;;;;1.83;0.70;;;5.90;99.90;;;;;;5325715;26;20001;-87
2024/04/21 05:44:02;;;;;;;2.22;0.60;;;6.00;99.90;;;;;;5319862;26;20006;-86
2024/04/21 05:46:27;;;;;;;3.13;0.75;;;6.00;99.90;;;;;;5324560;26;20094;-90
2024/04/21 05:48:53;;;;;;;3.35;0.95;;;6.00;99.90;;;;;;5324011;26;20005;-84
2024/04/21 05:51:19;;;;;;;3.58;1.13;;;5.90;99.90;;;;;;5296781;26;20096;-85
2024/04/21 05:53:44;;;;;;;3.35;1.08;;;5.90;99.90;;;;;;5356420;26;20000;-85
2024/04/21 05:56:10;;;;;;;4.18;0.90;;;5.90;99.90;;;;;;5324801;26;20015;-84
2024/04/21 05:58:35;;;;;;;4.00;1.00;;;5.90;99.90;;;;;;5323946;26;19997;-85
2024/04/21 06:01:01;;;;;;;2.72;1.08;;;5.90;99.90;;;;;;5346444;26;20016;-84
2024/04/21 06:03:27;;;;;;;4.47;1.63;;;5.90;99.90;;;;;;5316716;26;20015;-83
2024/04/21 06:05:53;;;;;;;2.85;0.93;;;6.00;99.90;;;;;;5331451;26;20000;-83
2024/04/21 06:08:19;;;;;;;3.95;1.02;;;6.00;99.90;;;;;;5311471;26;20004;-84
2024/04/21 06:10:44;;;;;;;3.33;1.10;;;6.00;99.90;;;;;;5289822;26;19997;-84
2024/04/21 06:13:10;;;;;;;5.35;1.00;;;6.00;99.90;;;;;;5350919;26;20008;-84
2024/04/21 06:15:36;;;;;;;3.47;0.90;;;6.00;99.90;;;;;;5327324;26;20000;-82
2024/04/21 06:18:02;;;;;;;2.58;0.85;;;6.10;99.90;;;;;;5324104;26;20047;-84
2024/04/21 06:20:27;;;;;;;2.25;0.90;;;6.10;99.90;;;;;;5369329;26;20001;-84
2024/04/21 06:22:53;;;;;;;3.10;1.15;;;6.20;99.90;;;;;;5280101;26;20015;-83
2024/04/21 06:25:19;;;;;;;1.88;0.80;;;6.10;99.90;;;;;;5299966;26;20007;-84
2024/04/21 06:27:44;;;;;;;4.47;0.80;;;6.10;99.90;;;;;;5317209;26;20336;-83
2024/04/21 06:30:10;;;;;;;1.48;0.52;;;6.10;99.90;;;;;;5291142;26;20015;-83
2024/04/21 06:32:36;;;;;;;2.65;1.08;;;6.10;99.90;;;;;;5321451;26;20003;-83
2024/04/21 06:35:01;;;;;;;3.50;0.75;;;6.10;99.90;;;;;;5351197;26;20352;-83
2024/04/21 06:37:27;;;;;;;2.55;0.90;;;6.20;99.90;;;;;;5343301;26;20188;-84
2024/04/21 06:39:53;;;;;;;3.88;1.00;;;6.10;99.90;;;;;;5351525;26;20501;-83
2024/04/21 06:42:18;;;;;;;2.78;0.75;;;6.10;99.90;;;;;;5350829;26;20385;-83
2024/04/21 06:44:44;;;;;;;2.80;0.80;;;6.10;99.90;;;;;;5376430;26;20348;-83
2024/04/21 06:47:11;;;;;;;1.98;0.70;;;6.20;99.90;;;;;;5331780;26;20048;-83
2024/04/21 06:49:38;;;;;;;2.58;1.15;;;6.20;99.90;;;;;;5320846;26;20004;-83
2024/04/21 06:52:04;;;;;;;2.58;0.73;;;6.30;99.90;;;;;;5346749;26;19997;-84
2024/04/21 06:54:30;;;;;;;2.38;0.90;;;6.40;99.90;;;;;;5321792;26;20019;-83
2024/04/21 06:56:55;;;;;;;3.35;0.98;;;6.50;99.90;;;;;;5314698;26;19997;-83
2024/04/21 06:59:22;;;;;;;3.15;1.10;;;6.70;99.90;;;;;;5331557;26;20004;-83
2024/04/21 07:01:49;;;;;;;3.70;1.40;;;6.70;99.90;;;;;;5368177;26;20007;-84
2024/04/21 07:04:15;;;;;;;4.10;1.20;;;6.70;99.90;;;;;;5351041;26;19996;-83
2024/04/21 07:06:40;;;;;;;5.20;1.25;;;6.70;99.90;;;;;;5318181;26;20442;-84
2024/04/21 07:09:06;;;;;;;3.38;1.42;;;6.70;99.90;;;;;;5314567;26;20027;-84
2024/04/21 07:11:31;;;;;;;5.18;1.17;;;6.70;99.90;;;;;;5328916;26;20007;-83
2024/04/21 07:13:57;;;;;;;6.22;1.60;;;6.70;99.90;;;;;;5350694;26;20083;-84
2024/04/21 07:16:23;;;;;;;2.92;1.42;;;6.80;99.90;;;;;;5315994;26;20012;-85
2024/04/21 07:18:49;;;;;;;6.80;1.52;;;6.80;99.90;;;;;;5286262;26;19997;-85
2024/04/21 07:21:14;;;;;;;4.90;1.70;;;6.90;99.90;;;;;;5331760;26;19996;-85
2024/04/21 07:23:40;;;;;;;6.30;1.88;;;6.90;99.90;;;;;;5323168;26;20307;-85
2024/04/21 07:26:06;;;;;;;8.45;1.83;;;7.00;99.90;;;;;;5353314;26;20005;-85
2024/04/21 07:28:31;;;;;;;6.07;1.75;;;7.00;99.90;;;;;;5353864;26;20011;-85
2024/04/21 07:30:57;;;;;;;10.68;2.38;;;7.10;99.90;;;;;;5301490;26;20000;-85
2024/04/21 07:33:23;;;;;;;5.50;1.95;;;7.10;99.90;;;;;;5355326;26;20527;-86
2024/04/21 07:35:49;;;;;;;12.20;2.30;;;7.00;99.90;;;;;;5386986;26;20012;-84
2024/04/21 07:38:14;;;;;;;6.10;2.38;;;7.00;99.90;;;;;;5368805;26;19992;-83
2024/04/21 07:40:40;;;;;;;6.78;3.00;;;6.90;99.90;;;;;;5335995;26;19996;-83
2024/04/21 07:43:06;;;;;;;6.68;2.50;;;6.90;99.90;;;;;;5403109;26;20000;-83
2024/04/21 07:45:31;;;;;;;6.13;2.17;;;7.00;99.90;;;;;;5336498;26;20007;-83
2024/04/21 07:47:57;;;;;;;6.72;2.60;;;7.00;99.90;;;;;;5355107;26;19992;-83
2024/04/21 07:50:22;;;;;;;9.70;2.65;;;7.10;99.90;;;;;;5313837;26;20436;-84
2024/04/21 07:52:48;;;;;;;5.30;2.17;;;7.20;99.90;;;;;;5323185;26;20094;-83
2024/04/21 07:55:14;;;;;;;5.25;2.53;;;7.30;99.90;;;;;;5324476;26;20011;-83
2024/04/21 07:57:40;;;;;;;10.02;3.28;;;7.40;99.90;;;;;;5361318;26;20387;-83
2024/04/21 08:00:06;;;;;;;10.27;3.33;;;7.50;99.90;;;;;;5312798;26;19997;-83
2024/04/21 08:02:32;;;;;;;8.98;3.45;;;7.50;99.90;;;;;;5345266;26;20420;-83
2024/04/21 08:04:57;;;;;;;9.43;4.00;;;7.40;99.90;;;;;;5359175;26;20000;-84
2024/04/21 08:07:23;;;;;;;8.95;4.25;;;7.40;99.90;;;;;;5383920;26;19996;-84
2024/04/21 08:09:49;;;;;;;9.07;3.90;;;7.40;99.90;;;;;;5349905;26;20008;-83
2024/04/21 08:12:14;;;;;;;7.88;4.20;;;7.50;99.90;;;;;;5278280;26;20001;-83
2024/04/21 08:14:40;;;;;;;7.88;3.72;;;7.50;99.90;;;;;;5319244;26;20004;-82
2024/04/21 08:17:06;;;;;;;5.82;3.50;;;7.60;99.90;;;;;;5290456;26;20001;-82
2024/04/21 08:19:31;;;;;;;11.40;2.85;;;7.70;99.90;;;;;;5342185;26;20332;-82
2024/04/21 08:21:57;;;;;;;7.70;2.85;;;7.80;99.90;;;;;;5344588;26;20012;-82
2024/04/21 08:24:23;;;;;;;5.68;2.38;;;7.80;99.90;;;;;;5346345;26;19997;-81
2024/04/21 08:26:49;;;;;;;5.90;2.25;;;7.80;99.90;;;;;;5313543;26;20024;-82
2024/04/21 08:29:15;;;;;;;5.43;2.05;;;7.80;99.90;;;;;;5353686;26;20000;-82
2024/04/21 08:31:40;;;;;;;4.35;2.03;;;7.90;99.90;;;;;;5352368;26;20340;-82
2024/04/21 08:34:06;;;;;;;6.18;1.80;;;7.90;99.90;;;;;;5334769;26;20012;-82
2024/04/21 08:36:31;;;;;;;6.18;1.67;;;7.90;99.90;;;;;;5316890;26;20042;-82
2024/04/21 08:38:57;;;;;;;6.90;2.40;;;8.00;99.90;;;;;;5344751;26;20005;-82
2024/04/21 08:41:26;;;;;;;4.30;2.20;;;8.00;99.90;;;;;;5294979;26;20010;-81
2024/04/21 08:43:52;;;;;;;7.78;2.17;;;8.00;99.90;;;;;;5344001;26;20001;-82
2024/04/21 08:46:19;;;;;;;6.68;1.90;;;8.20;99.90;;;;;;5345330;26;20008;-83
2024/04/21 08:48:47;;;;;;;7.18;1.60;;;8.20;99.90;;;;;;5319026;26;19997;-82
2024/04/21 08:51:14;;;;;;;6.53;1.85;;;8.30;99.90;;;;;;5374675;26;20007;-80
2024/04/21 08:53:40;;;;;;;5.63;1.60;;;8.30;99.90;;;;;;5354072;26;20027;-81
2024/04/21 08:56:19;;;;;;;4.38;1.50;;;8.30;99.90;;;;;;5340766;26;20014;-82
2024/04/21 08:58:50;;;;;;;5.75;1.77;;;8.40;99.90;;;;;;5384547;26;20436;-82
2024/04/21 09:01:18;;;;;;;3.83;1.27;;;8.50;99.90;;;;;;5338953;26;20007;-82
2024/04/21 09:03:47;;;;;;;5.15;1.40;;;8.60;99.80;;;;;;5341917;26;19985;-82
2024/04/21 09:06:15;;;;;;;4.80;1.52;;;8.70;99.60;;;;;;5372340;26;20403;-84
2024/04/21 09:08:41;;;;;;;4.13;1.83;;;8.70;99.30;;;;;;5373391;26;20008;-82
2024/04/21 09:11:07;;;;;;;4.28;2.05;;;8.80;99.00;;;;;;5360665;26;20000;-84
2024/04/21 09:13:33;;;;;;;6.25;2.00;;;8.80;98.70;;;;;;5336631;26;19996;-82
2024/04/21 09:15:59;;;;;;;4.97;1.98;;;8.70;98.80;;;;;;5288735;26;20071;-84
2024/04/21 09:18:25;;;;;;;5.60;1.90;;;8.80;98.70;;;;;;5321958;26;20013;-82
2024/04/21 09:20:51;;;;;;;5.30;2.30;;;8.80;98.90;;;;;;5323626;26;20016;-82
2024/04/21 09:23:18;;;;;;;4.15;1.63;;;8.90;98.60;;;;;;5318803;26;21000;-84
2024/04/21 09:25:44;;;;;;;7.32;2.47;;;8.90;98.30;;;;;;5323207;26;20000;-83
2024/04/21 09:28:09;;;;;;;3.08;2.22;;;8.80;97.80;;;;;;5349045;26;20084;-83
2024/04/21 09:30:35;;;;;;;2.83;1.70;;;8.70;97.80;;;;;;5317024;26;20077;-83
2024/04/21 09:33:03;;;;;;;3.45;2.00;;;8.70;98.10;;;;;;5297918;26;20032;-83
2024/04/21 09:35:31;;;;;;;4.80;2.25;;;8.80;98.30;;;;;;5378537;26;20921;-82
2024/04/21 09:37:56;;;;;;;3.53;1.65;;;8.80;98.20;;;;;;5345276;26;20336;-83
2024/04/21 09:40:23;;;;;;;3.05;1.70;;;8.90;98.30;;;;;;5382737;26;20000;-83
2024/04/21 09:42:51;;;;;;;5.15;2.15;;;9.00;98.60;;;;;;5351872;26;20074;-83
2024/04/21 09:45:20;;;;;;;5.40;1.92;;;9.10;98.30;;;;;;5346121;26;19992;-83
2024/04/21 09:47:46;;;;;;;2.88;1.60;;;9.10;98.00;;;;;;5321634;26;20001;-82
2024/04/21 09:50:13;;;;;;;3.70;1.85;;;9.00;98.00;;;;;;5316638;26;20009;-82
2024/04/21 09:52:38;;;;;;;5.05;1.80;;;9.00;97.90;;;;;;5309686;26;20015;-82
2024/04/21 09:55:05;;;;;;;4.50;2.05;;;9.10;97.80;;;;;;5326526;26;20333;-82
2024/04/21 09:57:39;;;;;;;3.40;1.73;;;9.10;97.50;;;;;;5348045;26;20327;-82
2024/04/21 10:00:06;;;;;;;5.38;2.00;;;9.20;97.60;;;;;;5331612;26;19997;-82
2024/04/21 10:02:52;;;;;;;4.40;1.88;;;9.20;97.30;;;;;;5371196;26;20432;-82
2024/04/21 10:05:19;;;;;;;5.00;2.22;;;9.20;97.40;;;;;;5370366;26;20010;-82
2024/04/21 10:07:50;;;;;;;3.83;1.80;;;9.30;97.40;;;;;;5352122;26;19996;-82
2024/04/21 10:10:20;;;;;;;4.38;1.90;;;9.30;97.20;;;;;;5346212;26;20040;-82
2024/04/21 10:12:46;;;;;;;3.60;1.48;;;9.30;97.10;;;;;;5350273;26;20008;-83
2024/04/21 10:15:16;;;;;;;4.65;2.10;;;9.40;97.20;;;;;;5351490;26;20001;-82
2024/04/21 10:17:53;;;;;;;4.13;1.90;;;9.50;97.30;;;;;;5351978;26;20000;-83
2024/04/21 10:20:33;;;;;;;2.95;1.90;;;9.70;97.20;;;;;;5347127;26;20004;-84
2024/04/21 10:23:05;;;;;;;2.08;1.73;;;9.80;96.90;;;;;;5352534;26;20015;-82
2024/04/21 10:25:34;;;;;;;2.65;1.73;;;9.90;97.00;;;;;;5353846;26;19996;-83
2024/04/21 10:28:11;;;;;;;2.25;1.80;;;9.90;96.60;;;;;;5392815;26;20067;-82
2024/04/21 10:30:37;;;;;;;3.13;1.80;;;9.90;96.40;;;;;;5340140;26;19992;-82
2024/04/21 10:33:06;;;;;;;3.17;2.08;;;10.00;96.40;;;;;;5320283;26;20055;-83
2024/04/21 10:35:35;;;;;;;4.30;1.88;;;10.00;96.40;;;;;;5369092;26;20021;-82
2024/04/21 10:38:10;;;;;;;3.15;2.25;;;10.10;96.40;;;;;;5346190;26;20007;-81
2024/04/21 10:40:40;;;;;;;3.03;1.98;;;10.20;96.40;;;;;;5341464;26;20427;-82
2024/04/21 10:43:07;;;;;;;5.63;2.00;;;10.30;96.20;;;;;;5347046;26;20012;-81
2024/04/21 10:45:38;;;;;;;4.35;2.40;;;10.40;96.30;;;;;;5380937;26;20000;-81
2024/04/21 10:48:05;;;;;;;3.00;2.03;;;10.40;95.60;;;;;;5350863;26;20447;-81
2024/04/21 10:50:33;;;;;;;3.38;2.33;;;10.50;95.70;;;;;;5367783;26;20390;-81
2024/04/21 10:52:59;;;;;;;1.80;1.70;;;10.60;95.00;;;;;;5371340;26;20419;-81
2024/04/21 10:55:25;;;;;;;1.88;1.60;;;10.60;95.20;;;;;;5328347;26;19999;-82
2024/04/21 10:57:51;;;;;;;2.83;1.88;;;10.70;95.20;;;;;;5320333;26;20012;-82
2024/04/21 11:00:17;;;;;;;2.03;1.83;;;10.70;95.40;;;;;;5316601;26;20347;-83
2024/04/21 11:02:43;;;;;;;2.58;1.75;;;10.90;95.50;;;;;;5311863;26;20012;-82
2024/04/21 11:05:09;;;;;;;2.97;1.90;;;10.90;95.40;;;;;;5357182;26;20432;-83
2024/04/21 11:07:35;;;;;;;2.53;2.10;;;11.00;95.10;;;;;;5380995;26;20447;-83
2024/04/21 11:10:01;;;;;;;2.08;1.75;;;11.00;94.20;;;;;;5315415;26;20048;-84
2024/04/21 11:12:29;;;;;;;2.00;1.63;;;11.10;94.50;;;;;;5334408;26;19997;-83
2024/04/21 11:14:58;;;;;;;1.70;1.60;;;11.20;94.20;;;;;;5287902;26;20790;-83
2024/04/21 11:17:24;;;;;;;3.92;1.95;;;11.30;94.10;;;;;;5380923;26;20007;-83
2024/04/21 11:19:50;;;;;;;4.05;2.10;;;11.40;93.90;;;;;;5350323;26;19993;-83
2024/04/21 11:22:16;;;;;;;1.92;1.67;;;11.30;93.80;;;;;;5338713;26;20011;-82
2024/04/21 11:24:43;;;;;;;2.30;1.50;;;11.30;93.60;;;;;;5338238;26;20008;-81
2024/04/21 11:27:11;;;;;;;2.08;1.80;;;11.20;93.70;;;;;;5350264;26;20413;-83
2024/04/21 11:29:37;;;;;;;2.20;1.92;;;11.20;93.50;;;;;;5315521;26;20023;-82
2024/04/21 11:32:03;;;;;;;2.20;1.90;;;11.10;93.50;;;;;;5319616;26;20484;-83
2024/04/21 11:34:32;;;;;;;2.10;1.90;;;11.00;93.50;;;;;;5319990;26;20009;-82
2024/04/21 11:36:58;;;;;;;2.30;1.70;;;11.10;93.60;;;;;;5344644;26;20004;-82
2024/04/21 11:39:23;;;;;;;2.50;1.80;;;11.00;93.50;;;;;;5373321;26;20001;-83
2024/04/21 11:41:49;;;;;;;2.47;1.75;;;11.10;93.60;;;;;;5292760;26;20072;-82
2024/04/21 11:44:19;;;;;;;2.13;1.60;;;11.20;93.50;;;;;;5320501;26;20085;-82
2024/04/21 11:46:44;;;;;;;1.92;1.83;;;11.30;93.50;;;;;;5320667;26;20008;-82
2024/04/21 11:49:10;;;;;;;2.75;1.65;;;11.30;93.30;;;;;;5315478;26;20494;-82
2024/04/21 11:51:36;;;;;;;2.72;1.80;;;11.20;93.40;;;;;;5317124;26;20348;-82
2024/04/21 11:54:01;;;;;;;2.42;2.00;;;11.20;93.40;;;;;;5346998;26;20019;-82
2024/04/21 11:56:27;;;;;;;2.28;1.80;;;11.30;93.40;;;;;;5357808;26;20008;-83
2024/04/21 11:58:53;;;;;;;1.85;1.48;;;11.30;93.40;;;;;;5308711;26;20004;-82
2024/04/21 12:01:19;;;;;;;1.83;1.60;;;11.40;93.60;;;;;;5396890;26;20016;-82
2024/04/21 12:03:44;;;;;;;1.55;1.38;;;11.60;93.70;;;;;;5310703;26;19997;-81
2024/04/21 12:06:10;;;;;;;1.63;1.50;;;11.70;93.10;;;;;;5398134;26;20000;-81
2024/04/21 12:08:36;;;;;;;2.05;1.40;;;11.80;93.20;;;;;;5348547;26;19997;-82
2024/04/21 12:11:03;;;;;;;1.73;1.45;;;11.90;93.30;;;;;;5301304;26;20358;-81
2024/04/21 12:13:32;;;;;;;1.95;1.70;;;12.00;92.60;;;;;;5349928;26;19997;-82
2024/04/21 12:15:57;;;;;;;1.90;1.42;;;12.00;92.20;;;;;;5352540;26;19996;-83
2024/04/21 12:18:23;;;;;;;2.03;1.70;;;11.90;92.00;;;;;;5317762;26;20011;-83
2024/04/21 12:20:49;;;;;;;1.65;1.50;;;11.80;91.60;;;;;;5264046;26;20099;-82
2024/04/21 12:23:14;;;;;;;2.13;1.30;;;11.70;91.80;;;;;;5329560;26;20332;-82
2024/04/21 12:25:40;;;;;;;1.55;1.45;;;11.80;92.00;;;;;;5383904;26;20008;-82
2024/04/21 12:28:06;;;;;;;2.10;1.55;;;11.80;92.00;;;;;;5346619;26;20467;-82
2024/04/21 12:30:34;;;;;;;1.92;1.30;;;11.70;91.60;;;;;;5338263;26;20066;-82
2024/04/21 12:32:59;;;;;;;2.50;1.13;;;11.70;91.20;;;;;;5317902;26;19997;-82
2024/04/21 12:35:25;;;;;;;1.33;1.20;;;11.60;91.20;;;;;;5345844;26;20476;-83
2024/04/21 12:37:50;;;;;;;1.42;0.90;;;11.70;90.80;;;;;;5329715;26;20451;-83
2024/04/21 12:40:16;;;;;;;0.95;0.80;;;11.70;91.00;;;;;;5324373;26;20389;-83
2024/04/21 12:42:42;;;;;;;1.98;0.95;;;11.80;91.30;;;;;;5319456;26;20002;-83
2024/04/21 12:45:08;;;;;;;2.42;1.00;;;11.80;91.50;;;;;;5343139;26;20356;-82
2024/04/21 12:47:36;;;;;;;0.95;0.90;;;11.90;91.20;;;;;;5320900;26;20000;-83
2024/04/21 12:50:03;;;;;;;3.17;1.05;;;11.90;91.00;;;;;;5375767;26;20022;-82